createdAt,value
2017-09-30T00:01:58.736Z,71.70
2017-09-30T00:04:28.374Z,71.70
2017-09-30T00:06:58.152Z,71.50
2017-09-30T00:09:29.288Z,71.20
2017-09-30T00:11:59.142Z,71.10
2017-09-30T00:14:29.697Z,71.50
2017-09-30T00:17:00.265Z,71.40
2017-09-30T00:19:29.895Z,71.40
2017-09-30T00:21:59.757Z,71.20
2017-09-30T00:24:30.180Z,71.00
2017-09-30T00:27:07.386Z,70.90
2017-09-30T00:29:37.232Z,70.90
2017-09-30T00:32:06.917Z,71.70
2017-09-30T00:34:36.767Z,72.30
2017-09-30T00:37:07.357Z,73.00
2017-09-30T00:39:38.146Z,72.20
2017-09-30T00:42:07.773Z,71.50
2017-09-30T00:44:38.490Z,71.10
2017-09-30T00:47:09.180Z,71.00
2017-09-30T00:49:39.004Z,71.40
2017-09-30T00:52:08.773Z,71.50
2017-09-30T00:54:38.822Z,71.00
2017-09-30T00:57:09.801Z,70.80
2017-09-30T00:59:39.734Z,70.60
2017-09-30T01:02:10.398Z,71.30
2017-09-30T01:04:40.252Z,71.20
2017-09-30T01:07:09.923Z,72.30
2017-09-30T01:09:39.722Z,73.20
2017-09-30T01:12:11.084Z,72.70
2017-09-30T01:14:41.642Z,72.70
2017-09-30T01:17:11.531Z,72.30
2017-09-30T01:19:42.237Z,73.10
2017-09-30T01:22:12.883Z,73.00
2017-09-30T01:24:44.270Z,72.50
2017-09-30T01:27:14.239Z,72.40
2017-09-30T01:29:44.821Z,71.50
2017-09-30T01:32:14.803Z,71.50
2017-09-30T01:34:44.875Z,71.30
2017-09-30T01:37:14.834Z,71.50
2017-09-30T01:39:44.707Z,71.10
2017-09-30T01:42:14.771Z,70.80
2017-09-30T01:44:45.379Z,70.60
2017-09-30T01:47:15.312Z,70.60
2017-09-30T01:49:46.168Z,70.80
2017-09-30T01:52:16.446Z,71.00
2017-09-30T01:54:46.461Z,70.90
2017-09-30T01:57:16.192Z,70.70
2017-09-30T01:59:48.046Z,71.70
2017-09-30T02:02:17.705Z,72.10
2017-09-30T02:04:47.547Z,72.50
2017-09-30T02:07:17.190Z,72.60
2017-09-30T02:09:51.756Z,71.80
2017-09-30T02:12:22.439Z,71.80
2017-09-30T02:14:52.250Z,71.40
2017-09-30T02:17:21.951Z,71.10
2017-09-30T02:19:51.624Z,71.00
2017-09-30T02:22:21.531Z,71.10
2017-09-30T02:24:51.210Z,71.00
2017-09-30T02:27:22.836Z,73.00
2017-09-30T02:29:52.360Z,73.00
2017-09-30T02:32:22.938Z,72.90
2017-09-30T02:34:52.628Z,73.50
2017-09-30T02:37:22.393Z,74.30
2017-09-30T02:39:51.582Z,73.40
2017-09-30T02:42:22.552Z,73.20
2017-09-30T02:44:53.172Z,73.30
2017-09-30T02:47:22.402Z,72.70
2017-09-30T02:49:52.147Z,72.10
2017-09-30T02:52:21.683Z,71.80
2017-09-30T02:54:52.545Z,72.00
2017-09-30T02:57:23.228Z,72.40
2017-09-30T02:59:53.099Z,72.30
2017-09-30T03:02:24.507Z,72.60
2017-09-30T03:04:54.784Z,72.60
2017-09-30T03:07:24.640Z,72.50
2017-09-30T03:09:54.238Z,72.70
2017-09-30T03:12:23.966Z,72.50
2017-09-30T03:14:53.774Z,72.10
2017-09-30T03:17:23.846Z,72.00
2017-09-30T03:19:53.508Z,73.70
2017-09-30T03:22:26.964Z,73.80
2017-09-30T03:24:58.171Z,73.50
2017-09-30T03:27:28.105Z,73.30
2017-09-30T03:29:58.523Z,73.10
2017-09-30T03:32:29.324Z,73.10
2017-09-30T03:34:59.770Z,73.50
2017-09-30T03:37:29.396Z,73.60
2017-09-30T03:39:59.237Z,73.80
2017-09-30T03:42:28.757Z,73.30
2017-09-30T03:45:01.391Z,73.20
2017-09-30T03:47:32.023Z,72.80
2017-09-30T03:50:01.552Z,72.40
2017-09-30T03:52:32.145Z,72.30
2017-09-30T03:55:01.982Z,72.40
2017-09-30T03:57:32.581Z,73.10
2017-09-30T04:00:03.289Z,73.00
2017-09-30T04:02:32.662Z,73.70
2017-09-30T04:05:04.373Z,73.50
2017-09-30T04:07:34.156Z,73.50
2017-09-30T04:10:04.210Z,73.20
2017-09-30T04:12:33.779Z,72.90
2017-09-30T04:15:03.095Z,72.70
2017-09-30T04:17:32.888Z,72.60
2017-09-30T04:20:02.745Z,75.30
2017-09-30T04:22:32.617Z,77.20
2017-09-30T04:25:03.885Z,78.10
2017-09-30T04:27:37.182Z,78.70
2017-09-30T04:30:07.893Z,78.80
2017-09-30T04:32:47.492Z,79.10
2017-09-30T04:35:18.466Z,78.40
2017-09-30T04:37:48.100Z,77.50
2017-09-30T04:40:18.675Z,77.40
2017-09-30T04:42:49.105Z,76.20
2017-09-30T04:45:18.834Z,75.40
2017-09-30T04:47:49.304Z,74.50
2017-09-30T04:50:20.054Z,74.40
2017-09-30T04:52:49.915Z,73.90
2017-09-30T04:55:20.578Z,73.60
2017-09-30T04:57:52.097Z,73.50
2017-09-30T05:00:22.934Z,73.60
2017-09-30T05:02:54.154Z,73.80
2017-09-30T05:05:33.069Z,73.80
2017-09-30T05:08:02.755Z,74.90
2017-09-30T05:10:33.738Z,74.90
2017-09-30T05:13:03.754Z,75.20
2017-09-30T05:15:33.445Z,74.80
2017-09-30T05:18:10.989Z,75.20
2017-09-30T05:20:40.829Z,74.70
2017-09-30T05:23:10.623Z,74.90
2017-09-30T05:25:40.549Z,75.70
2017-09-30T05:28:11.265Z,75.10
2017-09-30T05:30:44.734Z,74.60
2017-09-30T05:33:14.195Z,74.90
2017-09-30T05:35:44.005Z,75.40
2017-09-30T05:38:15.763Z,75.80
2017-09-30T05:40:45.323Z,75.70
2017-09-30T05:43:17.035Z,75.30
2017-09-30T05:45:46.790Z,75.60
2017-09-30T05:48:16.333Z,75.50
2017-09-30T05:50:46.223Z,75.30
2017-09-30T05:53:16.653Z,76.10
2017-09-30T05:55:47.929Z,76.10
2017-09-30T05:58:17.628Z,76.10
2017-09-30T06:00:47.500Z,75.50
2017-09-30T06:03:17.778Z,75.50
2017-09-30T06:05:48.720Z,75.90
2017-09-30T06:08:18.411Z,75.50
2017-09-30T06:10:48.892Z,75.10
2017-09-30T06:13:20.486Z,76.10
2017-09-30T06:15:50.325Z,75.60
2017-09-30T06:18:20.648Z,75.50
2017-09-30T06:20:50.584Z,76.10
2017-09-30T06:23:20.456Z,77.00
2017-09-30T06:25:50.884Z,75.50
2017-09-30T06:28:23.173Z,75.10
2017-09-30T06:30:53.095Z,74.90
2017-09-30T06:33:22.722Z,75.30
2017-09-30T06:35:52.475Z,75.80
2017-09-30T06:38:23.093Z,75.80
2017-09-30T06:40:52.918Z,75.30
2017-09-30T06:43:22.785Z,75.00
2017-09-30T06:45:52.646Z,74.90
2017-09-30T06:48:22.301Z,74.70
2017-09-30T06:50:53.839Z,75.20
2017-09-30T06:53:23.671Z,75.50
2017-09-30T06:55:54.566Z,75.60
2017-09-30T06:58:25.001Z,75.70
2017-09-30T07:00:55.821Z,75.60
2017-09-30T07:03:26.634Z,75.60
2017-09-30T07:05:56.271Z,76.30
2017-09-30T07:08:26.869Z,76.40
2017-09-30T07:10:57.278Z,76.30
2017-09-30T07:13:27.895Z,76.70
2017-09-30T07:15:57.732Z,76.50
2017-09-30T07:18:27.543Z,75.80
2017-09-30T07:20:58.287Z,75.70
2017-09-30T07:23:28.655Z,75.50
2017-09-30T07:25:59.457Z,75.80
2017-09-30T07:28:29.934Z,75.90
2017-09-30T07:30:59.971Z,75.80
2017-09-30T07:33:29.807Z,75.80
2017-09-30T07:35:59.559Z,75.70
2017-09-30T07:38:30.182Z,74.90
2017-09-30T07:41:01.779Z,74.80
2017-09-30T07:43:32.603Z,75.20
2017-09-30T07:46:02.233Z,75.10
2017-09-30T07:48:32.040Z,74.70
2017-09-30T07:51:01.924Z,75.10
2017-09-30T07:53:31.559Z,75.20
2017-09-30T07:56:01.421Z,75.50
2017-09-30T07:58:32.932Z,74.70
2017-09-30T08:01:03.178Z,75.30
2017-09-30T08:03:33.117Z,76.10
2017-09-30T08:06:02.812Z,75.50
2017-09-30T08:08:33.601Z,75.90
2017-09-30T08:11:04.508Z,75.60
2017-09-30T08:13:36.356Z,74.50
2017-09-30T08:16:06.196Z,73.60
2017-09-30T08:18:36.597Z,73.70
2017-09-30T08:21:07.312Z,73.70
2017-09-30T08:23:36.840Z,73.20
2017-09-30T08:26:07.718Z,73.60
2017-09-30T08:28:39.718Z,73.50
2017-09-30T08:31:11.895Z,73.00
2017-09-30T08:33:41.465Z,72.70
2017-09-30T08:36:11.100Z,72.80
2017-09-30T08:38:42.591Z,71.00
2017-09-30T08:41:12.128Z,71.00
2017-09-30T08:43:43.293Z,70.40
2017-09-30T08:46:13.060Z,68.60
2017-09-30T08:48:43.888Z,68.50
2017-09-30T08:51:13.590Z,67.00
2017-09-30T08:53:45.616Z,65.90
2017-09-30T08:56:15.285Z,65.50
2017-09-30T08:58:46.180Z,64.20
2017-09-30T09:01:15.785Z,64.40
2017-09-30T09:03:46.823Z,61.90
2017-09-30T09:06:18.063Z,62.20
2017-09-30T09:08:48.628Z,61.00
2017-09-30T09:11:18.403Z,60.40
2017-09-30T09:13:47.992Z,61.00
2017-09-30T09:16:19.407Z,61.60
2017-09-30T09:18:48.849Z,59.60
2017-09-30T09:21:21.097Z,57.30
2017-09-30T09:23:52.497Z,57.20
2017-09-30T09:26:26.152Z,57.20
2017-09-30T09:28:57.475Z,54.40
2017-09-30T09:31:27.341Z,54.30
2017-09-30T09:33:56.957Z,54.60
2017-09-30T09:36:26.562Z,52.10
2017-09-30T09:38:57.298Z,52.40
2017-09-30T09:41:28.368Z,52.10
2017-09-30T09:43:59.223Z,51.20
2017-09-30T09:46:29.092Z,49.20
2017-09-30T09:48:58.899Z,51.40
2017-09-30T09:51:28.555Z,51.00
2017-09-30T09:53:59.891Z,52.70
2017-09-30T09:56:29.786Z,54.40
2017-09-30T09:59:00.198Z,53.20
2017-09-30T10:01:29.992Z,53.40
2017-09-30T10:04:01.432Z,55.20
2017-09-30T10:06:32.033Z,55.50
2017-09-30T10:09:01.676Z,55.40
2017-09-30T10:11:32.324Z,55.40
2017-09-30T10:14:02.745Z,54.80
2017-09-30T10:16:33.277Z,54.70
2017-09-30T10:19:03.910Z,55.20
2017-09-30T10:21:35.037Z,54.20
2017-09-30T10:24:04.687Z,54.10
2017-09-30T10:26:37.256Z,54.30
2017-09-30T10:29:08.080Z,53.50
2017-09-30T10:31:38.718Z,50.20
2017-09-30T10:34:09.170Z,50.10
2017-09-30T10:36:42.040Z,47.80
2017-09-30T10:39:11.674Z,47.70
2017-09-30T10:41:45.437Z,47.30
2017-09-30T10:44:15.992Z,44.50
2017-09-30T10:46:46.492Z,44.40
2017-09-30T10:49:17.001Z,44.40
2017-09-30T10:51:46.661Z,44.40
2017-09-30T10:54:20.031Z,44.70
2017-09-30T10:56:50.386Z,43.90
2017-09-30T10:59:21.257Z,43.80
2017-09-30T11:01:51.067Z,44.60
2017-09-30T11:04:22.834Z,45.70
2017-09-30T11:06:52.678Z,45.50
2017-09-30T11:09:23.176Z,46.70
2017-09-30T11:11:52.974Z,46.60
2017-09-30T11:14:22.671Z,47.20
2017-09-30T11:16:53.527Z,47.70
2017-09-30T11:19:23.114Z,47.30
2017-09-30T11:21:52.738Z,46.50
2017-09-30T11:24:24.505Z,46.00
2017-09-30T11:26:54.322Z,46.30
2017-09-30T11:29:24.186Z,47.20
2017-09-30T11:31:56.296Z,47.40
2017-09-30T11:34:26.121Z,47.40
2017-09-30T11:36:55.948Z,45.60
2017-09-30T11:39:26.578Z,43.70
2017-09-30T11:41:57.918Z,43.70
2017-09-30T11:44:27.541Z,42.80
2017-09-30T11:46:57.407Z,41.00
2017-09-30T11:49:27.981Z,39.80
2017-09-30T11:51:59.011Z,39.70
2017-09-30T11:54:28.660Z,42.10
2017-09-30T11:57:00.336Z,40.70
2017-09-30T11:59:30.983Z,39.80
2017-09-30T12:02:03.346Z,37.40
2017-09-30T12:04:33.856Z,36.80
2017-09-30T12:07:02.794Z,37.10
2017-09-30T12:09:32.296Z,37.70
2017-09-30T12:12:02.559Z,37.20
2017-09-30T12:14:33.686Z,39.90
2017-09-30T12:17:03.521Z,40.00
2017-09-30T12:19:34.049Z,39.50
2017-09-30T12:22:04.535Z,39.30
2017-09-30T12:24:38.097Z,39.30
2017-09-30T12:27:07.869Z,40.50
2017-09-30T12:29:38.280Z,39.10
2017-09-30T12:32:08.229Z,39.20
2017-09-30T12:34:38.649Z,40.20
2017-09-30T12:37:09.270Z,41.40
2017-09-30T12:39:39.038Z,41.40
2017-09-30T12:42:09.647Z,41.80
2017-09-30T12:44:39.458Z,39.90
2017-09-30T12:47:10.801Z,42.80
2017-09-30T12:49:40.854Z,42.80
2017-09-30T12:52:10.537Z,42.50
2017-09-30T12:54:42.603Z,43.80
2017-09-30T12:57:12.325Z,43.80
2017-09-30T12:59:41.897Z,42.90
2017-09-30T13:02:11.718Z,42.80
2017-09-30T13:04:42.205Z,43.20
2017-09-30T13:07:12.205Z,43.10
2017-09-30T13:09:41.860Z,45.90
2017-09-30T13:12:12.535Z,46.00
2017-09-30T13:14:42.183Z,46.70
2017-09-30T13:17:12.944Z,46.70
2017-09-30T13:19:42.627Z,46.00
2017-09-30T13:22:12.486Z,45.10
2017-09-30T13:24:42.863Z,45.90
2017-09-30T13:27:15.310Z,45.90
2017-09-30T13:29:46.379Z,47.10
2017-09-30T13:32:17.982Z,45.90
2017-09-30T13:34:52.271Z,44.90
2017-09-30T13:37:21.021Z,44.90
2017-09-30T13:39:51.530Z,44.80
2017-09-30T13:42:21.865Z,43.90
2017-09-30T13:44:52.536Z,44.30
2017-09-30T13:47:21.306Z,44.90
2017-09-30T13:49:51.166Z,43.60
2017-09-30T13:52:22.684Z,45.00
2017-09-30T13:54:52.358Z,44.90
2017-09-30T13:57:23.045Z,45.30
2017-09-30T13:59:52.849Z,45.70
2017-09-30T14:02:22.458Z,46.00
2017-09-30T14:04:52.328Z,45.80
2017-09-30T14:07:22.052Z,46.80
2017-09-30T14:09:51.696Z,46.40
2017-09-30T14:12:21.359Z,46.50
2017-09-30T14:14:50.963Z,45.70
2017-09-30T14:17:20.800Z,47.20
2017-09-30T14:19:50.528Z,47.00
2017-09-30T14:22:21.039Z,48.50
2017-09-30T14:24:50.930Z,47.60
2017-09-30T14:27:21.478Z,47.90
2017-09-30T14:29:51.361Z,47.90
2017-09-30T14:32:21.990Z,46.80
2017-09-30T14:34:52.378Z,46.70
2017-09-30T14:37:22.233Z,46.70
2017-09-30T14:39:53.646Z,47.20
2017-09-30T14:42:23.421Z,47.20
2017-09-30T14:44:53.028Z,47.10
2017-09-30T14:47:28.572Z,49.50
2017-09-30T14:49:58.226Z,49.50
2017-09-30T14:52:28.057Z,50.40
2017-09-30T14:55:00.696Z,51.90
2017-09-30T14:57:30.187Z,52.90
2017-09-30T14:59:59.964Z,54.40
2017-09-30T15:02:30.424Z,56.40
2017-09-30T15:05:00.473Z,56.40
2017-09-30T15:07:30.173Z,56.00
2017-09-30T15:09:59.967Z,57.10
2017-09-30T15:12:29.562Z,56.80
2017-09-30T15:14:59.182Z,59.20
2017-09-30T15:17:29.927Z,59.50
2017-09-30T15:20:01.620Z,60.10
2017-09-30T15:22:31.445Z,59.10
2017-09-30T15:25:01.085Z,61.20
2017-09-30T15:27:31.636Z,62.60
2017-09-30T15:30:01.492Z,61.70
2017-09-30T15:32:29.063Z,60.20
2017-09-30T15:34:57.443Z,60.90
2017-09-30T15:37:25.824Z,64.30
2017-09-30T15:39:54.226Z,63.60
2017-09-30T15:42:21.795Z,63.60
2017-09-30T15:44:49.368Z,64.40
2017-09-30T15:47:16.978Z,64.20
2017-09-30T15:49:47.539Z,64.20
2017-09-30T15:52:15.110Z,64.80
2017-09-30T15:54:44.996Z,65.90
2017-09-30T15:57:15.363Z,68.30
2017-09-30T15:59:45.238Z,68.30
2017-09-30T16:02:14.763Z,67.20
2017-09-30T16:04:44.385Z,66.40
2017-09-30T16:07:15.027Z,65.80
2017-09-30T16:09:44.909Z,64.80
2017-09-30T16:12:15.276Z,62.40
2017-09-30T16:14:44.956Z,62.40
2017-09-30T16:17:15.628Z,63.40
2017-09-30T16:19:46.130Z,61.70
2017-09-30T16:22:15.804Z,62.10
2017-09-30T16:24:47.228Z,63.60
2017-09-30T16:27:18.045Z,63.60
2017-09-30T16:29:47.559Z,63.10
2017-09-30T16:32:17.252Z,64.10
2017-09-30T16:34:46.810Z,63.00
2017-09-30T16:37:17.077Z,61.90
2017-09-30T16:39:47.309Z,61.90
2017-09-30T16:42:24.992Z,62.20
2017-09-30T16:44:59.777Z,61.60
2017-09-30T16:47:30.643Z,62.40
2017-09-30T16:50:01.323Z,61.90
2017-09-30T16:52:31.116Z,62.40
2017-09-30T16:55:02.021Z,60.80
2017-09-30T16:57:31.746Z,60.70
2017-09-30T17:00:00.727Z,60.20
2017-09-30T17:02:31.076Z,61.50
2017-09-30T17:05:01.824Z,62.10
2017-09-30T17:07:31.210Z,64.90
2017-09-30T17:09:59.897Z,63.20
2017-09-30T17:12:28.606Z,64.20
2017-09-30T17:14:58.776Z,65.50
2017-09-30T17:17:29.214Z,63.80
2017-09-30T17:19:58.717Z,63.80
2017-09-30T17:22:29.538Z,66.10
2017-09-30T17:24:59.301Z,66.70
2017-09-30T17:27:29.671Z,66.20
2017-09-30T17:29:59.163Z,63.60
2017-09-30T17:32:29.501Z,63.00
2017-09-30T17:34:59.144Z,62.50
2017-09-30T17:37:28.437Z,62.50
2017-09-30T17:39:58.108Z,64.00
2017-09-30T17:42:28.763Z,64.10
2017-09-30T17:44:59.112Z,64.60
2017-09-30T17:47:27.997Z,64.50
2017-09-30T17:50:01.959Z,64.50
2017-09-30T17:52:32.373Z,65.60
2017-09-30T17:55:01.905Z,64.40
2017-09-30T17:57:32.257Z,66.10
2017-09-30T18:00:02.438Z,63.40
2017-09-30T18:02:31.970Z,63.40
2017-09-30T18:05:02.937Z,62.50
2017-09-30T18:07:32.708Z,62.50
2017-09-30T18:10:02.288Z,63.70
2017-09-30T18:12:31.574Z,63.50
2017-09-30T18:15:02.215Z,63.90
2017-09-30T18:17:32.059Z,64.90
2017-09-30T18:20:01.244Z,63.70
2017-09-30T18:22:32.385Z,64.70
2017-09-30T18:25:02.157Z,65.40
2017-09-30T18:27:31.773Z,66.70
2017-09-30T18:30:01.351Z,67.00
2017-09-30T18:32:33.306Z,67.70
2017-09-30T18:35:03.095Z,67.70
2017-09-30T18:37:32.426Z,66.60
2017-09-30T18:40:02.919Z,67.10
2017-09-30T18:42:32.528Z,67.00
2017-09-30T18:45:02.248Z,68.40
2017-09-30T18:47:31.703Z,69.50
2017-09-30T18:50:02.198Z,68.90
2017-09-30T18:52:31.579Z,68.90
2017-09-30T18:55:01.829Z,69.50
2017-09-30T18:57:30.943Z,69.50
2017-09-30T19:00:00.557Z,67.60
2017-09-30T19:02:30.702Z,68.40
2017-09-30T19:05:00.023Z,68.40
2017-09-30T19:07:29.459Z,68.70
2017-09-30T19:09:59.963Z,69.50
2017-09-30T19:12:30.477Z,70.10
2017-09-30T19:15:00.063Z,69.70
2017-09-30T19:17:29.848Z,70.80
2017-09-30T19:19:59.855Z,69.40
2017-09-30T19:22:29.554Z,69.30
2017-09-30T19:24:59.226Z,68.90
2017-09-30T19:27:29.062Z,71.40
2017-09-30T19:29:59.919Z,71.20
2017-09-30T19:32:29.597Z,69.70
2017-09-30T19:34:59.101Z,70.50
2017-09-30T19:37:28.335Z,70.90
2017-09-30T19:39:57.374Z,69.40
2017-09-30T19:42:26.177Z,69.30
2017-09-30T19:44:55.761Z,69.00
2017-09-30T19:47:24.994Z,68.40
2017-09-30T19:49:55.571Z,71.00
2017-09-30T19:52:25.333Z,70.00
2017-09-30T19:54:54.860Z,70.50
2017-09-30T19:57:24.979Z,71.10
2017-09-30T19:59:54.453Z,71.80
2017-09-30T20:02:24.895Z,71.40
2017-09-30T20:04:54.634Z,71.70
2017-09-30T20:07:24.165Z,71.90
2017-09-30T20:09:53.873Z,70.10
2017-09-30T20:12:32.252Z,69.20
2017-09-30T20:15:01.863Z,69.10
2017-09-30T20:17:29.627Z,69.70
2017-09-30T20:19:59.083Z,68.90
2017-09-30T20:22:28.651Z,69.70
2017-09-30T20:24:57.873Z,69.70
2017-09-30T20:27:27.602Z,69.80
2017-09-30T20:29:57.905Z,69.00
2017-09-30T20:32:27.631Z,69.00
2017-09-30T20:34:57.778Z,69.40
2017-09-30T20:37:27.532Z,69.20
2017-09-30T20:39:56.665Z,68.60
2017-09-30T20:42:27.131Z,70.70
2017-09-30T20:44:56.636Z,70.60
2017-09-30T20:47:26.437Z,70.10
2017-09-30T20:49:56.026Z,70.70
2017-09-30T20:52:25.443Z,69.30
2017-09-30T20:54:55.757Z,68.70
2017-09-30T20:57:26.692Z,70.00
2017-09-30T20:59:56.331Z,71.00
2017-09-30T21:02:25.954Z,70.50
2017-09-30T21:04:55.105Z,70.30
2017-09-30T21:07:24.409Z,69.20
2017-09-30T21:09:53.558Z,69.40
2017-09-30T21:12:22.609Z,69.60
2017-09-30T21:14:51.744Z,71.10
2017-09-30T21:17:21.078Z,72.20
2017-09-30T21:19:51.200Z,72.50
2017-09-30T21:22:20.106Z,72.50
2017-09-30T21:24:50.484Z,71.80
2017-09-30T21:27:20.178Z,71.80
2017-09-30T21:29:49.596Z,71.20
2017-09-30T21:32:19.223Z,71.10
2017-09-30T21:34:47.338Z,71.80
2017-09-30T21:37:15.832Z,72.30
2017-09-30T21:39:46.309Z,73.00
2017-09-30T21:42:15.834Z,73.10
2017-09-30T21:44:45.958Z,72.30
2017-09-30T21:47:15.634Z,72.00
2017-09-30T21:49:44.233Z,71.40
2017-09-30T21:52:13.163Z,71.50
2017-09-30T21:54:42.372Z,70.50
2017-09-30T21:57:10.299Z,70.20
2017-09-30T21:59:39.965Z,72.60
2017-09-30T22:02:09.321Z,71.70
2017-09-30T22:04:39.426Z,74.00
2017-09-30T22:07:09.865Z,74.00
2017-09-30T22:09:39.872Z,72.30
2017-09-30T22:12:10.242Z,72.20
2017-09-30T22:14:39.895Z,72.30
2017-09-30T22:17:09.560Z,72.00
2017-09-30T22:19:38.909Z,72.80
2017-09-30T22:22:08.362Z,73.50
2017-09-30T22:24:38.065Z,73.50
2017-09-30T22:27:06.675Z,73.20
2017-09-30T22:29:35.599Z,72.40
2017-09-30T22:32:06.204Z,72.60
2017-09-30T22:34:35.419Z,71.80
2017-09-30T22:37:05.046Z,70.40
2017-09-30T22:39:34.331Z,71.20
2017-09-30T22:42:03.613Z,70.70
2017-09-30T22:44:32.293Z,71.40
2017-09-30T22:47:02.417Z,72.00
2017-09-30T22:49:30.837Z,70.80
2017-09-30T22:52:00.359Z,70.20
2017-09-30T22:54:30.253Z,72.30
2017-09-30T22:56:59.779Z,72.30
2017-09-30T22:59:29.202Z,71.90
2017-09-30T23:01:58.897Z,71.80
2017-09-30T23:04:29.267Z,72.20
2017-09-30T23:06:58.847Z,72.20
2017-09-30T23:09:28.548Z,71.20
2017-09-30T23:11:58.638Z,71.80
2017-09-30T23:14:28.374Z,71.70
2017-09-30T23:16:59.789Z,71.00
2017-09-30T23:19:29.255Z,71.00
2017-09-30T23:21:58.746Z,70.40
2017-09-30T23:24:34.987Z,70.60
2017-09-30T23:27:05.185Z,70.60
2017-09-30T23:29:34.350Z,70.60
2017-09-30T23:32:03.783Z,71.90
2017-09-30T23:34:33.434Z,72.90
2017-09-30T23:37:01.965Z,73.40
2017-09-30T23:39:31.452Z,73.50
2017-09-30T23:42:01.566Z,71.90
2017-09-30T23:44:32.674Z,71.00
2017-09-30T23:47:02.704Z,71.60
2017-09-30T23:49:31.662Z,71.50
2017-09-30T23:52:01.020Z,71.80
2017-09-30T23:54:30.179Z,71.40
2017-09-30T23:57:00.329Z,73.30
2017-09-30T23:59:29.876Z,73.10
